Time;durP1;ratioP1;P1;durP2;ratioP2;P2;SDS_P1;SDS_P2;PMS_P1;PMS_P2;Temp;Humidity;BMP_temperature;BMP_pressure;BME280_temperature;BME280_humidity;BME280_pressure;Samples;Min_cycle;Max_cycle;Signal;HPM_P1;HPM_P2
2022/10/17 00:01:38;;;;;;;4.80;3.65;;;14.20;99.90;;;;;;5014615;28;20156;-81
2022/10/17 00:04:05;;;;;;;4.10;3.15;;;14.20;99.90;;;;;;4993759;28;20022;-81
2022/10/17 00:06:34;;;;;;;4.50;3.38;;;14.20;99.90;;;;;;4980524;28;20037;-81
2022/10/17 00:09:02;;;;;;;5.60;3.25;;;14.20;99.90;;;;;;4996743;28;20469;-81
2022/10/17 00:11:38;;;;;;;4.82;3.67;;;14.20;99.90;;;;;;5004542;28;20138;-82
2022/10/17 00:14:13;;;;;;;4.85;3.40;;;14.20;99.90;;;;;;5006725;28;20060;-81
2022/10/17 00:16:55;;;;;;;4.75;3.17;;;14.20;99.90;;;;;;5013991;28;20018;-81
2022/10/17 00:19:27;;;;;;;6.18;3.33;;;14.20;99.90;;;;;;4997401;28;20022;-80
2022/10/17 00:21:56;;;;;;;6.43;3.83;;;14.10;99.90;;;;;;5022066;28;20026;-79
2022/10/17 00:24:23;;;;;;;6.75;3.88;;;14.20;99.90;;;;;;5024265;28;20048;-80
2022/10/17 00:26:49;;;;;;;6.40;3.90;;;14.20;99.90;;;;;;5023977;28;20114;-80
2022/10/17 00:29:15;;;;;;;5.00;3.85;;;14.10;99.90;;;;;;5013798;28;20034;-80
2022/10/17 00:31:41;;;;;;;4.97;3.88;;;14.10;99.90;;;;;;4999138;28;20080;-81
2022/10/17 00:34:08;;;;;;;6.30;4.53;;;14.10;99.90;;;;;;5004450;28;20021;-81
2022/10/17 00:36:35;;;;;;;5.05;3.58;;;14.10;99.90;;;;;;5000350;28;20030;-81
2022/10/17 00:39:08;;;;;;;5.78;4.03;;;14.10;99.90;;;;;;5008453;28;20029;-81
2022/10/17 00:41:38;;;;;;;6.03;4.10;;;14.10;99.90;;;;;;4997616;28;20124;-81
2022/10/17 00:44:29;;;;;;;6.75;4.47;;;14.10;99.90;;;;;;5016733;28;20041;-81
2022/10/17 00:47:09;;;;;;;4.80;3.53;;;14.10;99.90;;;;;;5010462;28;20173;-81
2022/10/17 00:49:37;;;;;;;5.25;3.97;;;14.10;99.90;;;;;;4991492;28;20064;-80
2022/10/17 00:52:31;;;;;;;5.53;4.20;;;14.00;99.90;;;;;;5012604;28;20033;-82
2022/10/17 00:55:23;;;;;;;5.85;4.35;;;14.10;99.90;;;;;;4996587;28;20096;-81
2022/10/17 00:57:52;;;;;;;6.35;4.43;;;14.00;99.90;;;;;;4986204;28;20026;-81
2022/10/17 01:00:19;;;;;;;6.18;4.07;;;14.00;99.90;;;;;;4999192;28;20038;-82
2022/10/17 01:02:45;;;;;;;5.80;4.10;;;14.00;99.90;;;;;;5033464;28;20136;-81
2022/10/17 01:05:12;;;;;;;5.78;4.57;;;14.00;99.90;;;;;;5015677;28;20465;-81
2022/10/17 01:07:40;;;;;;;5.15;4.13;;;14.00;99.90;;;;;;5033109;28;20028;-81
2022/10/17 01:10:07;;;;;;;5.60;4.20;;;14.00;99.90;;;;;;5033241;28;20489;-81
2022/10/17 01:12:46;;;;;;;6.38;4.70;;;14.00;99.90;;;;;;4999743;28;20153;-81
2022/10/17 01:15:57;;;;;;;5.30;4.18;;;14.00;99.90;;;;;;4996030;28;20026;-81
2022/10/17 01:18:47;;;;;;;5.22;4.03;;;14.00;99.90;;;;;;4996023;28;20030;-82
2022/10/17 01:21:26;;;;;;;5.55;3.97;;;14.00;99.90;;;;;;4996112;28;20018;-82
2022/10/17 01:23:56;;;;;;;5.72;4.10;;;14.00;99.90;;;;;;5013881;28;20033;-82
2022/10/17 01:27:02;;;;;;;6.22;4.20;;;14.00;99.90;;;;;;4996209;28;20037;-82
2022/10/17 01:29:43;;;;;;;6.65;3.63;;;14.00;99.90;;;;;;5014770;28;20025;-83
2022/10/17 01:32:20;;;;;;;4.82;3.95;;;14.00;99.90;;;;;;5015659;28;20034;-82
2022/10/17 01:34:59;;;;;;;5.35;3.72;;;14.00;99.90;;;;;;5015714;28;20025;-83
2022/10/17 01:37:44;;;;;;;5.85;3.80;;;14.00;99.90;;;;;;5015447;28;20025;-82
2022/10/17 01:40:31;;;;;;;5.07;3.63;;;14.00;99.90;;;;;;4988066;28;20084;-81
2022/10/17 01:43:27;;;;;;;4.97;3.72;;;14.00;99.90;;;;;;5001809;28;20448;-82
2022/10/17 01:46:08;;;;;;;4.43;3.53;;;14.00;99.90;;;;;;5015755;28;20025;-81
2022/10/17 01:48:37;;;;;;;6.55;3.55;;;14.00;99.90;;;;;;5033173;28;20112;-81
2022/10/17 01:51:12;;;;;;;4.75;3.65;;;14.00;99.90;;;;;;5015899;28;20484;-82
2022/10/17 01:53:51;;;;;;;4.97;3.72;;;14.00;99.90;;;;;;5019161;28;20033;-81
2022/10/17 01:56:25;;;;;;;5.57;3.70;;;14.00;99.90;;;;;;5006224;28;20057;-81
2022/10/17 01:59:14;;;;;;;7.32;4.13;;;14.00;99.90;;;;;;5003691;28;20026;-82
2022/10/17 02:01:49;;;;;;;5.55;3.88;;;14.00;99.90;;;;;;5003098;28;20045;-81
2022/10/17 02:04:19;;;;;;;5.50;4.03;;;14.00;99.90;;;;;;5009516;28;20049;-82
2022/10/17 02:06:53;;;;;;;5.55;3.47;;;14.00;99.90;;;;;;5014306;28;20037;-81
2022/10/17 02:09:28;;;;;;;5.47;3.97;;;14.00;99.90;;;;;;5036310;28;20120;-81
2022/10/17 02:12:31;;;;;;;5.43;3.88;;;14.00;99.90;;;;;;5020894;28;20476;-81
2022/10/17 02:15:25;;;;;;;5.75;3.95;;;14.00;99.90;;;;;;4998308;28;20033;-81
2022/10/17 02:18:17;;;;;;;5.15;3.60;;;14.00;99.90;;;;;;5036268;28;20025;-80
2022/10/17 02:20:49;;;;;;;5.95;3.88;;;14.00;99.90;;;;;;5039050;28;20100;-81
2022/10/17 02:23:40;;;;;;;5.85;3.92;;;13.90;99.90;;;;;;5040622;28;20034;-81
2022/10/17 02:26:23;;;;;;;5.65;3.85;;;13.90;99.90;;;;;;5020939;28;20478;-81
2022/10/17 02:28:52;;;;;;;5.03;3.93;;;14.00;99.90;;;;;;5008344;28;20026;-81
2022/10/17 02:31:32;;;;;;;5.70;4.22;;;13.90;99.90;;;;;;5016885;28;20033;-81
2022/10/17 02:34:02;;;;;;;4.85;3.70;;;13.90;99.90;;;;;;5011492;28;20033;-81
2022/10/17 02:36:35;;;;;;;8.15;4.68;;;13.90;99.90;;;;;;5018576;28;20428;-81
2022/10/17 02:39:07;;;;;;;6.85;4.20;;;13.90;99.90;;;;;;5007698;28;20069;-81
2022/10/17 02:41:35;;;;;;;5.07;3.70;;;13.90;99.90;;;;;;5034306;28;20048;-81
2022/10/17 02:44:05;;;;;;;6.22;4.13;;;13.90;99.90;;;;;;5018332;28;20127;-81
2022/10/17 02:46:34;;;;;;;4.90;3.90;;;13.80;99.90;;;;;;5018098;28;20025;-81
2022/10/17 02:49:30;;;;;;;5.40;4.18;;;13.80;99.90;;;;;;5018187;28;20116;-81
2022/10/17 02:52:29;;;;;;;5.50;4.00;;;13.80;99.90;;;;;;5017992;28;20046;-81
2022/10/17 02:55:03;;;;;;;5.95;3.85;;;13.80;99.90;;;;;;4997026;28;20083;-81
2022/10/17 02:57:45;;;;;;;5.47;4.20;;;13.80;99.90;;;;;;5007458;28;20025;-82
2022/10/17 03:00:19;;;;;;;5.22;3.85;;;13.80;99.90;;;;;;5018049;28;20446;-82
2022/10/17 03:02:51;;;;;;;7.43;4.00;;;13.80;99.90;;;;;;5017630;28;20124;-81
2022/10/17 03:05:23;;;;;;;5.35;4.18;;;13.90;99.90;;;;;;5017720;28;20022;-82
2022/10/17 03:07:56;;;;;;;5.83;4.17;;;13.90;99.90;;;;;;5018006;28;20039;-82
2022/10/17 03:10:25;;;;;;;5.68;4.10;;;13.90;99.90;;;;;;5034978;28;20743;-81
2022/10/17 03:12:51;;;;;;;4.70;3.78;;;13.90;99.90;;;;;;5004751;28;20101;-82
2022/10/17 03:15:17;;;;;;;6.38;4.25;;;13.90;99.90;;;;;;5017299;28;20025;-81
2022/10/17 03:17:43;;;;;;;5.43;3.72;;;13.90;99.90;;;;;;5017457;28;20021;-81
2022/10/17 03:20:22;;;;;;;5.80;3.95;;;13.90;99.90;;;;;;5007397;28;20029;-81
2022/10/17 03:22:54;;;;;;;5.75;4.38;;;14.00;99.90;;;;;;5032623;28;20025;-82
2022/10/17 03:25:24;;;;;;;5.35;4.00;;;14.00;99.90;;;;;;5017055;28;20142;-83
2022/10/17 03:27:56;;;;;;;6.05;4.38;;;14.00;99.90;;;;;;5034850;28;20504;-83
2022/10/17 03:30:25;;;;;;;6.72;4.43;;;14.00;99.90;;;;;;5035232;28;20033;-82
2022/10/17 03:32:51;;;;;;;6.15;4.15;;;13.90;99.90;;;;;;5016869;28;20022;-82
2022/10/17 03:35:18;;;;;;;5.35;4.10;;;13.90;99.90;;;;;;5016791;28;20017;-80
2022/10/17 03:37:44;;;;;;;5.75;4.20;;;13.90;99.90;;;;;;5016605;28;20036;-82
2022/10/17 03:40:10;;;;;;;6.20;4.57;;;13.90;99.90;;;;;;4998323;28;20053;-81
2022/10/17 03:42:38;;;;;;;5.35;4.05;;;13.90;99.90;;;;;;4997241;28;20037;-81
2022/10/17 03:45:04;;;;;;;5.78;4.50;;;13.90;99.90;;;;;;4996741;28;20034;-81
2022/10/17 03:47:34;;;;;;;5.78;4.65;;;13.80;99.90;;;;;;4997098;28;20390;-82
2022/10/17 03:50:00;;;;;;;5.78;3.92;;;13.90;99.90;;;;;;4997118;28;20022;-82
2022/10/17 03:52:40;;;;;;;5.10;3.83;;;13.80;99.90;;;;;;4997209;28;20030;-82
2022/10/17 03:55:09;;;;;;;5.22;4.05;;;13.90;99.90;;;;;;5011452;28;20050;-81
2022/10/17 03:57:38;;;;;;;6.55;4.55;;;13.80;99.90;;;;;;4977591;28;20437;-82
2022/10/17 04:00:05;;;;;;;5.60;4.18;;;13.80;99.90;;;;;;4998050;28;20030;-81
2022/10/17 04:02:31;;;;;;;5.25;3.85;;;13.80;99.90;;;;;;4980370;28;20079;-82
2022/10/17 04:04:57;;;;;;;5.65;4.45;;;13.80;99.90;;;;;;4982096;28;20026;-82
2022/10/17 04:07:24;;;;;;;6.30;4.28;;;13.80;99.90;;;;;;4994681;28;20109;-82
2022/10/17 04:09:51;;;;;;;5.60;4.30;;;13.80;99.90;;;;;;4977300;28;20092;-81
2022/10/17 04:12:20;;;;;;;5.43;3.90;;;13.80;99.90;;;;;;4977479;28;20041;-80
2022/10/17 04:14:49;;;;;;;4.78;3.72;;;13.80;99.90;;;;;;4978505;28;20462;-80
2022/10/17 04:17:15;;;;;;;6.15;4.38;;;13.80;99.90;;;;;;4996901;28;20112;-79
2022/10/17 04:19:41;;;;;;;5.38;4.25;;;13.80;99.90;;;;;;4997322;28;20026;-79
2022/10/17 04:22:10;;;;;;;7.05;4.72;;;13.80;99.90;;;;;;5004823;28;20034;-81
2022/10/17 04:24:40;;;;;;;5.35;3.83;;;13.80;99.90;;;;;;4978145;28;20486;-82
2022/10/17 04:27:14;;;;;;;5.60;4.18;;;13.90;99.90;;;;;;4978543;28;20026;-81
2022/10/17 04:29:46;;;;;;;5.85;4.18;;;13.90;99.90;;;;;;4995725;28;20021;-81
2022/10/17 04:32:16;;;;;;;5.95;3.80;;;13.90;99.90;;;;;;4997618;28;20080;-81
2022/10/17 04:34:47;;;;;;;5.88;4.15;;;13.90;99.90;;;;;;4993639;28;20418;-82
2022/10/17 04:37:16;;;;;;;5.38;4.32;;;13.90;99.90;;;;;;4965680;28;20084;-82
2022/10/17 04:39:42;;;;;;;6.35;4.60;;;13.80;99.90;;;;;;4983413;28;20030;-82
2022/10/17 04:42:08;;;;;;;5.03;4.05;;;13.90;99.90;;;;;;5033113;28;20025;-83
2022/10/17 04:44:34;;;;;;;5.70;4.07;;;13.90;99.90;;;;;;5015632;28;20038;-83
2022/10/17 04:47:00;;;;;;;5.93;4.63;;;13.90;99.90;;;;;;5015548;28;20022;-82
2022/10/17 04:49:26;;;;;;;6.40;4.15;;;13.90;99.90;;;;;;5032968;28;20052;-82
2022/10/17 04:51:52;;;;;;;6.05;4.10;;;13.90;99.90;;;;;;5014753;28;20052;-82
2022/10/17 04:54:19;;;;;;;5.03;3.88;;;14.00;99.90;;;;;;5032953;28;20116;-82
2022/10/17 04:56:46;;;;;;;6.05;4.10;;;14.00;99.90;;;;;;5000672;28;20049;-82
2022/10/17 04:59:11;;;;;;;6.13;4.10;;;13.90;99.90;;;;;;5014788;28;20029;-82
2022/10/17 05:01:37;;;;;;;5.72;4.18;;;14.00;99.90;;;;;;4988625;28;20441;-83
2022/10/17 05:04:03;;;;;;;5.40;4.32;;;13.90;99.90;;;;;;5007293;28;20500;-82
2022/10/17 05:06:30;;;;;;;5.40;3.95;;;13.90;99.90;;;;;;5012081;28;20045;-83
2022/10/17 05:08:57;;;;;;;6.43;4.30;;;14.00;99.90;;;;;;4994091;28;20104;-82
2022/10/17 05:11:26;;;;;;;6.50;4.22;;;13.90;99.90;;;;;;4995969;28;20076;-82
2022/10/17 05:13:58;;;;;;;4.97;3.80;;;13.90;99.90;;;;;;5012065;28;20113;-82
2022/10/17 05:16:25;;;;;;;6.78;3.58;;;13.90;99.90;;;;;;4995435;28;20026;-83
2022/10/17 05:18:53;;;;;;;6.43;4.22;;;13.90;99.90;;;;;;5013854;28;20053;-82
2022/10/17 05:21:20;;;;;;;6.20;4.00;;;13.80;99.90;;;;;;5009434;28;20116;-82
2022/10/17 05:23:45;;;;;;;5.80;4.15;;;13.80;99.90;;;;;;4994624;28;20037;-83
2022/10/17 05:26:12;;;;;;;4.65;3.67;;;13.70;99.90;;;;;;4996264;28;20047;-82
2022/10/17 05:28:38;;;;;;;8.05;4.38;;;13.70;99.90;;;;;;4992114;28;20030;-83
2022/10/17 05:31:05;;;;;;;6.10;4.25;;;13.70;99.90;;;;;;4998422;28;20024;-82
2022/10/17 05:33:32;;;;;;;6.00;4.63;;;13.70;99.90;;;;;;4995182;28;20038;-82
2022/10/17 05:35:58;;;;;;;5.22;4.07;;;13.70;99.90;;;;;;4998193;28;20018;-82
2022/10/17 05:38:25;;;;;;;5.78;4.25;;;13.70;99.90;;;;;;5003083;28;20034;-82
2022/10/17 05:40:56;;;;;;;5.15;4.00;;;13.80;99.90;;;;;;5014875;28;20046;-81
2022/10/17 05:43:25;;;;;;;4.47;3.58;;;13.80;99.90;;;;;;4999423;28;20056;-81
2022/10/17 05:45:52;;;;;;;4.47;3.35;;;13.80;99.90;;;;;;4997528;28;20133;-82
2022/10/17 05:48:20;;;;;;;5.93;3.92;;;13.90;99.90;;;;;;5016704;28;20042;-82
2022/10/17 05:50:46;;;;;;;5.60;4.32;;;14.00;99.90;;;;;;5016612;28;20081;-82
2022/10/17 05:53:12;;;;;;;7.45;5.43;;;14.20;99.90;;;;;;4998802;28;20030;-82
2022/10/17 05:55:38;;;;;;;6.32;4.70;;;14.30;99.90;;;;;;5016989;28;20026;-82
2022/10/17 05:58:04;;;;;;;6.85;4.78;;;14.40;99.90;;;;;;4997904;28;20025;-83
2022/10/17 06:00:33;;;;;;;6.80;4.80;;;14.60;99.90;;;;;;4999215;28;20018;-83
2022/10/17 06:02:59;;;;;;;7.60;4.70;;;14.70;99.90;;;;;;5016223;28;20044;-83
2022/10/17 06:05:25;;;;;;;6.30;4.40;;;14.70;99.90;;;;;;4998725;28;20033;-83
2022/10/17 06:07:53;;;;;;;5.45;4.13;;;14.80;99.90;;;;;;4997975;28;20030;-83
2022/10/17 06:10:19;;;;;;;6.57;4.85;;;14.80;99.90;;;;;;5013660;28;20026;-83
2022/10/17 06:12:46;;;;;;;5.97;4.65;;;14.90;99.90;;;;;;5010136;28;20036;-80
2022/10/17 06:15:12;;;;;;;5.97;4.00;;;14.90;99.90;;;;;;5037819;28;20029;-82
2022/10/17 06:17:38;;;;;;;5.03;3.95;;;15.00;99.90;;;;;;5041024;28;20030;-82
2022/10/17 06:20:05;;;;;;;5.40;4.20;;;15.00;99.90;;;;;;5013931;28;20037;-82
2022/10/17 06:22:31;;;;;;;7.05;4.40;;;14.90;99.90;;;;;;5013660;28;20025;-82
2022/10/17 06:24:57;;;;;;;6.40;4.28;;;14.90;99.90;;;;;;5007435;28;20032;-82
2022/10/17 06:27:23;;;;;;;5.88;4.50;;;14.90;99.90;;;;;;5005900;28;20034;-83
2022/10/17 06:29:50;;;;;;;7.50;5.03;;;14.90;99.90;;;;;;5035489;28;20028;-83
2022/10/17 06:32:16;;;;;;;6.47;4.25;;;15.00;99.90;;;;;;5015498;28;20053;-82
2022/10/17 06:34:42;;;;;;;6.65;5.03;;;15.10;99.90;;;;;;4984823;28;20029;-83
2022/10/17 06:37:08;;;;;;;10.85;5.47;;;15.20;99.90;;;;;;4999241;28;20049;-83
2022/10/17 06:39:35;;;;;;;7.40;4.72;;;15.30;99.90;;;;;;4998503;28;20470;-83
2022/10/17 06:42:02;;;;;;;6.72;4.80;;;15.30;99.90;;;;;;5015385;28;20495;-83
2022/10/17 06:44:30;;;;;;;5.97;4.45;;;15.30;99.90;;;;;;5015721;28;20121;-83
2022/10/17 06:47:00;;;;;;;5.70;4.70;;;15.30;99.90;;;;;;4997355;28;20120;-83
2022/10/17 06:49:27;;;;;;;7.55;4.70;;;15.40;99.90;;;;;;4998167;28;20030;-83
2022/10/17 06:51:53;;;;;;;6.30;4.85;;;15.40;99.90;;;;;;4996983;28;20504;-83
2022/10/17 06:54:20;;;;;;;6.32;4.75;;;15.50;99.90;;;;;;4997893;28;20022;-83
2022/10/17 06:56:47;;;;;;;7.13;5.00;;;15.50;99.90;;;;;;4997209;28;20046;-83
2022/10/17 06:59:14;;;;;;;8.18;5.75;;;15.60;99.90;;;;;;4997364;28;20088;-83
2022/10/17 07:01:40;;;;;;;7.53;5.28;;;15.60;99.90;;;;;;4997572;28;20029;-83
2022/10/17 07:04:07;;;;;;;6.35;4.88;;;15.70;99.90;;;;;;4997430;28;20084;-83
2022/10/17 07:06:33;;;;;;;6.80;5.00;;;15.70;99.90;;;;;;4996579;28;20466;-83
2022/10/17 07:09:01;;;;;;;6.72;4.80;;;15.90;99.90;;;;;;4996295;28;20033;-81
2022/10/17 07:11:27;;;;;;;6.20;4.72;;;15.90;99.90;;;;;;4998484;28;20083;-83
2022/10/17 07:13:53;;;;;;;5.78;4.75;;;16.00;99.90;;;;;;5010804;28;20037;-82
2022/10/17 07:16:20;;;;;;;7.05;4.47;;;16.00;99.90;;;;;;5016911;28;20026;-83
2022/10/17 07:18:49;;;;;;;6.78;4.65;;;16.10;99.90;;;;;;5020388;28;20028;-82
2022/10/17 07:21:15;;;;;;;5.82;4.53;;;16.20;99.90;;;;;;5016302;28;20025;-81
2022/10/17 07:23:43;;;;;;;7.65;4.82;;;16.20;99.90;;;;;;5008491;28;20060;-82
2022/10/17 07:26:12;;;;;;;6.40;4.22;;;16.20;99.90;;;;;;5016378;28;20029;-83
2022/10/17 07:28:40;;;;;;;6.45;5.30;;;16.30;99.90;;;;;;5018971;28;20032;-83
2022/10/17 07:31:12;;;;;;;8.15;5.47;;;16.40;99.90;;;;;;5024994;28;20371;-83
2022/10/17 07:33:38;;;;;;;6.65;5.35;;;16.50;99.90;;;;;;5013662;28;20045;-83
2022/10/17 07:36:04;;;;;;;10.40;5.97;;;16.70;99.90;;;;;;5012071;28;20021;-83
2022/10/17 07:38:33;;;;;;;6.93;5.43;;;16.80;99.90;;;;;;4989148;28;20034;-82
2022/10/17 07:41:05;;;;;;;8.52;5.65;;;16.80;99.90;;;;;;5007806;28;20050;-82
2022/10/17 07:43:31;;;;;;;9.15;6.18;;;16.90;99.90;;;;;;5013480;28;20053;-83
2022/10/17 07:45:59;;;;;;;7.25;5.82;;;16.90;99.90;;;;;;5012176;28;20026;-83
2022/10/17 07:48:29;;;;;;;6.03;5.40;;;16.90;99.90;;;;;;4998069;28;20021;-83
2022/10/17 07:50:55;;;;;;;6.47;5.18;;;16.90;99.90;;;;;;4997705;28;20053;-84
2022/10/17 07:53:21;;;;;;;8.07;5.72;;;16.90;99.90;;;;;;4996764;28;20030;-83
2022/10/17 07:55:48;;;;;;;5.88;5.28;;;16.90;99.90;;;;;;4996142;28;20032;-83
2022/10/17 07:58:14;;;;;;;7.68;5.65;;;16.90;99.90;;;;;;5008135;28;20098;-83
2022/10/17 08:00:40;;;;;;;6.80;5.75;;;16.90;99.90;;;;;;4996554;28;20382;-82
2022/10/17 08:03:07;;;;;;;6.88;5.30;;;16.90;99.90;;;;;;4996224;28;20029;-80
2022/10/17 08:05:33;;;;;;;7.63;6.00;;;16.90;99.90;;;;;;5009814;28;20029;-81
2022/10/17 08:07:59;;;;;;;8.90;6.15;;;16.90;99.90;;;;;;5007930;28;20103;-81
2022/10/17 08:10:27;;;;;;;9.25;6.00;;;16.90;99.90;;;;;;5029273;28;20026;-79
2022/10/17 08:12:57;;;;;;;7.68;5.88;;;16.90;99.90;;;;;;5003538;28;20037;-80
2022/10/17 08:15:24;;;;;;;7.70;6.25;;;16.90;99.90;;;;;;5030136;28;20029;-82
2022/10/17 08:17:51;;;;;;;7.65;5.57;;;16.80;99.90;;;;;;4999442;28;20488;-82
2022/10/17 08:20:17;;;;;;;6.88;5.72;;;16.70;99.90;;;;;;5005711;28;20018;-83
2022/10/17 08:22:51;;;;;;;6.65;5.32;;;16.60;99.90;;;;;;4999949;28;20656;-84
2022/10/17 08:25:17;;;;;;;7.75;6.32;;;16.40;99.90;;;;;;5013405;28;20030;-84
2022/10/17 08:27:44;;;;;;;8.93;5.38;;;16.30;99.90;;;;;;5008441;28;20029;-84
2022/10/17 08:30:12;;;;;;;9.27;8.13;;;16.30;99.90;;;;;;5014040;28;20133;-83
2022/10/17 08:32:40;;;;;;;8.23;7.18;;;16.20;99.90;;;;;;5013082;28;20026;-83
2022/10/17 08:35:06;;;;;;;9.32;6.00;;;16.20;99.90;;;;;;5016415;28;20021;-84
2022/10/17 08:37:34;;;;;;;7.80;6.25;;;16.10;99.90;;;;;;5008945;28;20014;-83
2022/10/17 08:40:04;;;;;;;10.77;6.20;;;16.20;99.90;;;;;;5009854;28;20077;-84
2022/10/17 08:43:08;;;;;;;7.78;6.05;;;16.20;99.90;;;;;;4995986;28;20092;-83
2022/10/17 08:45:34;;;;;;;;;;;16.20;99.90;;;;;;4996461;28;20056;-83
2022/10/17 08:48:13;;;;;;;6.65;5.57;;;16.20;99.90;;;;;;4994963;28;19905;-82
2022/10/17 08:51:00;;;;;;;6.28;5.25;;;16.10;99.90;;;;;;4986285;28;20117;-84
2022/10/17 08:53:40;;;;;;;7.75;5.90;;;16.20;99.90;;;;;;4976139;28;20041;-83
2022/10/17 08:56:43;;;;;;;6.80;5.75;;;16.20;99.90;;;;;;4975790;28;20026;-84
2022/10/17 08:59:18;;;;;;;8.35;6.20;;;16.20;99.90;;;;;;4975961;28;20423;-83
2022/10/17 09:02:23;;;;;;;9.77;7.30;;;16.20;99.90;;;;;;4980519;28;20470;-82
2022/10/17 09:05:11;;;;;;;7.72;5.93;;;16.20;99.90;;;;;;4975293;28;20049;-83
2022/10/17 09:08:07;;;;;;;9.35;6.32;;;16.30;99.90;;;;;;4970120;28;20034;-83
2022/10/17 09:10:50;;;;;;;6.90;5.65;;;16.20;99.90;;;;;;4978861;28;20530;-83
2022/10/17 09:13:25;;;;;;;7.70;5.95;;;16.30;99.90;;;;;;4975587;28;20026;-83
2022/10/17 09:16:12;;;;;;;7.45;5.30;;;16.30;99.90;;;;;;4978905;28;20568;-84
2022/10/17 09:18:53;;;;;;;6.70;5.30;;;16.30;99.90;;;;;;4985139;28;20026;-84
2022/10/17 09:21:21;;;;;;;6.28;5.30;;;16.30;99.90;;;;;;4980920;28;20038;-82
2022/10/17 09:23:54;;;;;;;6.07;5.32;;;16.40;99.90;;;;;;4995570;28;20022;-83
2022/10/17 09:26:25;;;;;;;8.77;5.60;;;16.40;99.90;;;;;;4981663;28;20045;-83
2022/10/17 09:28:54;;;;;;;7.38;5.85;;;16.40;99.90;;;;;;4999213;28;20026;-83
2022/10/17 09:32:18;;;;;;;5.55;4.72;;;16.40;99.90;;;;;;4979223;28;20027;-82
2022/10/17 09:34:44;;;;;;;5.60;4.28;;;16.40;99.90;;;;;;4886596;29;20032;-82
2022/10/17 09:37:15;;;;;;;6.88;5.20;;;16.40;99.90;;;;;;4989259;28;20489;-81
2022/10/17 09:39:43;;;;;;;5.80;4.80;;;16.40;99.90;;;;;;4982692;28;20082;-83
2022/10/17 09:42:17;;;;;;;5.88;4.68;;;16.40;99.90;;;;;;5000976;28;20050;-82
2022/10/17 09:45:09;;;;;;;8.35;4.97;;;16.40;99.90;;;;;;4997714;28;20034;-83
2022/10/17 09:47:42;;;;;;;8.50;4.82;;;16.40;99.90;;;;;;4998685;28;20050;-83
2022/10/17 09:50:18;;;;;;;6.53;4.65;;;16.40;99.90;;;;;;4998696;28;20026;-82
2022/10/17 09:52:49;;;;;;;6.28;4.70;;;16.40;99.90;;;;;;5001041;28;20025;-83
2022/10/17 09:55:23;;;;;;;7.20;4.07;;;16.40;99.90;;;;;;5001503;28;20089;-83
2022/10/17 09:57:55;;;;;;;5.38;4.30;;;16.40;99.90;;;;;;4998365;28;20474;-83
2022/10/17 10:00:25;;;;;;;5.70;4.63;;;16.40;99.90;;;;;;5007486;28;20109;-83
2022/10/17 10:03:18;;;;;;;5.40;4.45;;;16.40;99.90;;;;;;4996335;28;20037;-85
2022/10/17 10:06:05;;;;;;;5.75;4.55;;;16.40;99.90;;;;;;5000911;28;20038;-84
2022/10/17 10:08:48;;;;;;;6.63;4.38;;;16.40;99.90;;;;;;5027482;28;20040;-85
2022/10/17 10:11:14;;;;;;;5.60;4.53;;;16.50;99.90;;;;;;5013456;28;20029;-84
2022/10/17 10:13:49;;;;;;;6.18;4.07;;;16.50;99.90;;;;;;4994793;28;20100;-84
2022/10/17 10:16:30;;;;;;;5.75;4.13;;;16.60;99.90;;;;;;5008434;28;20464;-84
2022/10/17 10:18:58;;;;;;;6.25;4.78;;;16.50;99.90;;;;;;4995411;28;20037;-83
2022/10/17 10:21:26;;;;;;;6.18;4.90;;;16.50;99.90;;;;;;5013554;28;20697;-84
2022/10/17 10:23:58;;;;;;;8.18;5.90;;;16.50;99.90;;;;;;5001417;28;20060;-84
2022/10/17 10:26:41;;;;;;;7.28;5.60;;;16.50;99.90;;;;;;5006072;28;20053;-83
2022/10/17 10:29:34;;;;;;;7.00;4.85;;;16.50;99.90;;;;;;5004855;28;20014;-85
2022/10/17 10:32:26;;;;;;;7.83;5.30;;;16.50;99.90;;;;;;4987835;28;20014;-84
2022/10/17 10:34:56;;;;;;;7.18;5.10;;;16.50;99.90;;;;;;4989934;28;20398;-84
2022/10/17 10:37:45;;;;;;;6.00;4.45;;;16.50;99.90;;;;;;4986604;28;20053;-84
2022/10/17 10:40:20;;;;;;;7.18;5.80;;;16.50;99.90;;;;;;4998494;28;20046;-83
2022/10/17 10:42:50;;;;;;;6.35;5.15;;;16.50;99.90;;;;;;5004031;28;20038;-84
2022/10/17 10:45:24;;;;;;;6.07;4.97;;;16.60;99.90;;;;;;4992895;28;20101;-84
2022/10/17 10:48:20;;;;;;;5.60;4.50;;;16.60;99.90;;;;;;4993013;28;20080;-84
2022/10/17 10:51:14;;;;;;;6.10;4.75;;;16.60;99.90;;;;;;5003280;28;20030;-84
2022/10/17 10:53:47;;;;;;;6.30;4.75;;;16.70;99.90;;;;;;5004167;28;20025;-83
2022/10/17 10:56:25;;;;;;;6.78;4.93;;;16.70;99.90;;;;;;5000451;28;20022;-84
2022/10/17 10:59:17;;;;;;;5.18;4.07;;;16.80;99.90;;;;;;5003375;28;20057;-82
2022/10/17 11:02:10;;;;;;;8.23;4.40;;;16.80;99.90;;;;;;4987920;28;20426;-85
2022/10/17 11:05:02;;;;;;;6.10;4.03;;;16.80;99.90;;;;;;4992764;28;20389;-83
2022/10/17 11:08:19;;;;;;;5.05;4.15;;;16.90;99.90;;;;;;4987852;28;20038;-83
2022/10/17 11:11:07;;;;;;;6.53;4.30;;;16.90;99.90;;;;;;4968556;28;20037;-83
2022/10/17 11:13:46;;;;;;;6.30;4.28;;;16.90;99.90;;;;;;4988331;28;20687;-83
2022/10/17 11:16:33;;;;;;;5.82;4.15;;;16.90;99.90;;;;;;4991430;28;20030;-83
2022/10/17 11:19:24;;;;;;;5.32;4.15;;;16.90;99.90;;;;;;5002399;28;20449;-84
2022/10/17 11:22:19;;;;;;;5.00;3.85;;;16.90;99.90;;;;;;5009386;28;20037;-84
2022/10/17 11:24:59;;;;;;;5.75;3.97;;;16.90;99.90;;;;;;5008835;28;20045;-84
2022/10/17 11:27:28;;;;;;;5.20;4.05;;;16.90;99.90;;;;;;4994783;28;20557;-84
2022/10/17 11:29:57;;;;;;;5.78;3.97;;;16.90;99.90;;;;;;4994488;28;20458;-85
2022/10/17 11:32:31;;;;;;;6.80;4.40;;;16.90;99.90;;;;;;4999866;28;20144;-84
2022/10/17 11:35:06;;;;;;;7.93;4.80;;;16.90;99.90;;;;;;5006293;28;20090;-84
2022/10/17 11:37:42;;;;;;;6.07;4.82;;;16.90;99.90;;;;;;5000131;28;20481;-84
2022/10/17 11:40:24;;;;;;;6.07;4.55;;;17.00;99.90;;;;;;5006396;28;20092;-84
2022/10/17 11:42:58;;;;;;;;;;;17.00;99.90;;;;;;5003918;28;20026;-85
2022/10/17 11:45:27;;;;;;;5.57;4.57;;;16.90;99.90;;;;;;5000085;28;20028;-85
2022/10/17 11:48:11;;;;;;;7.43;5.20;;;17.00;99.90;;;;;;5004217;28;20025;-85
2022/10/17 11:50:41;;;;;;;7.07;5.00;;;17.00;99.90;;;;;;4996209;28;20484;-85
2022/10/17 11:53:23;;;;;;;6.70;5.50;;;17.10;99.90;;;;;;5013492;28;20029;-85
2022/10/17 11:55:52;;;;;;;6.28;4.88;;;17.10;99.90;;;;;;5015763;28;20082;-84
2022/10/17 11:58:46;;;;;;;7.68;4.97;;;17.10;99.90;;;;;;5021486;28;20081;-85
2022/10/17 12:01:30;;;;;;;8.07;5.40;;;17.20;99.90;;;;;;5031576;28;20037;-85
2022/10/17 12:03:59;;;;;;;6.38;5.45;;;17.10;99.90;;;;;;5014067;28;20042;-84
2022/10/17 12:06:57;;;;;;;6.45;4.97;;;17.10;99.90;;;;;;5015748;28;20029;-85
2022/10/17 12:09:45;;;;;;;7.38;5.95;;;17.10;99.90;;;;;;4995939;28;20057;-84
2022/10/17 12:12:34;;;;;;;6.50;5.18;;;17.10;99.90;;;;;;5015653;28;20107;-84
2022/10/17 12:15:12;;;;;;;8.05;5.90;;;17.10;99.90;;;;;;4987079;28;20072;-83
2022/10/17 12:17:42;;;;;;;8.23;5.90;;;17.10;99.90;;;;;;5013132;28;20022;-83
2022/10/17 12:20:27;;;;;;;5.78;5.13;;;17.10;99.90;;;;;;5028630;28;20033;-83
2022/10/17 12:22:57;;;;;;;6.88;5.45;;;17.10;99.90;;;;;;4994848;28;20032;-84
2022/10/17 12:25:28;;;;;;;6.25;5.50;;;17.10;99.90;;;;;;4996288;28;20480;-84
2022/10/17 12:28:46;;;;;;;8.40;6.82;;;17.10;99.90;;;;;;4989657;28;20455;-84
2022/10/17 12:31:24;;;;;;;6.78;5.80;;;17.20;99.90;;;;;;4973573;28;20069;-84
2022/10/17 12:33:53;;;;;;;6.95;5.93;;;17.20;99.90;;;;;;4994224;28;20033;-83
2022/10/17 12:36:24;;;;;;;6.38;5.25;;;17.20;99.90;;;;;;4989692;28;20033;-83
2022/10/17 12:39:05;;;;;;;7.82;6.20;;;17.30;99.90;;;;;;4996333;28;20025;-83
2022/10/17 12:41:37;;;;;;;7.25;5.72;;;17.30;99.90;;;;;;4986495;28;20042;-83
2022/10/17 12:44:13;;;;;;;8.80;6.63;;;17.30;99.90;;;;;;5008545;28;20112;-83
2022/10/17 12:46:51;;;;;;;9.50;7.03;;;17.20;99.90;;;;;;4988603;28;20042;-84
2022/10/17 12:49:46;;;;;;;8.35;6.63;;;17.20;99.90;;;;;;5005294;28;20057;-84
2022/10/17 12:52:33;;;;;;;7.72;6.43;;;17.20;99.90;;;;;;4986789;28;20037;-84
2022/10/17 12:55:02;;;;;;;6.18;5.45;;;17.20;99.90;;;;;;4990915;28;20033;-84
2022/10/17 12:57:50;;;;;;;8.43;6.40;;;17.20;99.90;;;;;;4990692;28;20036;-85
2022/10/17 13:00:35;;;;;;;8.35;6.40;;;17.30;99.90;;;;;;4987795;28;20034;-84
2022/10/17 13:03:17;;;;;;;8.20;5.93;;;17.20;99.90;;;;;;5004878;28;20041;-84
2022/10/17 13:05:49;;;;;;;6.68;5.70;;;17.30;99.90;;;;;;5007783;28;20092;-85
2022/10/17 13:08:23;;;;;;;6.80;5.90;;;17.30;99.90;;;;;;4986014;28;20023;-84
2022/10/17 13:10:51;;;;;;;8.93;6.88;;;17.30;99.90;;;;;;4991306;28;20033;-84
2022/10/17 13:13:38;;;;;;;8.10;7.30;;;17.30;99.90;;;;;;5007333;28;20038;-84
2022/10/17 13:16:04;;;;;;;7.72;6.22;;;17.30;99.90;;;;;;4994163;28;20091;-84
2022/10/17 13:18:30;;;;;;;7.97;6.38;;;17.20;99.90;;;;;;4990834;28;20202;-84
2022/10/17 13:21:04;;;;;;;7.80;6.35;;;17.20;99.90;;;;;;4991309;28;20044;-85
2022/10/17 13:23:36;;;;;;;8.82;7.30;;;17.20;99.90;;;;;;5014350;28;20093;-85